createdAt,value
2018-07-04T00:01:40.085Z,22.62
2018-07-04T00:04:26.425Z,22.69
2018-07-04T00:07:12.709Z,22.62
2018-07-04T00:09:58.981Z,22.65
2018-07-04T00:12:45.377Z,22.69
2018-07-04T00:15:31.677Z,22.58
2018-07-04T00:18:18.108Z,22.66
2018-07-04T00:21:04.537Z,22.70
2018-07-04T00:23:50.757Z,22.55
2018-07-04T00:26:37.012Z,22.49
2018-07-04T00:29:23.351Z,22.40
2018-07-04T00:32:09.636Z,22.52
2018-07-04T00:34:55.717Z,22.50
2018-07-04T00:37:42.306Z,22.63
2018-07-04T00:40:28.833Z,22.41
2018-07-04T00:43:15.109Z,22.56
2018-07-04T00:46:01.586Z,22.40
2018-07-04T00:48:47.919Z,22.18
2018-07-04T00:51:34.221Z,22.32
2018-07-04T00:54:20.585Z,22.22
2018-07-04T00:57:06.918Z,22.26
2018-07-04T00:59:53.213Z,22.22
2018-07-04T01:02:39.661Z,22.18
2018-07-04T01:05:25.948Z,21.95
2018-07-04T01:08:12.133Z,21.95
2018-07-04T01:10:58.433Z,22.04
2018-07-04T01:13:44.845Z,22.14
2018-07-04T01:16:31.236Z,21.90
2018-07-04T01:19:17.413Z,21.95
2018-07-04T01:22:03.752Z,21.90
2018-07-04T01:24:50.186Z,21.93
2018-07-04T01:27:36.493Z,21.88
2018-07-04T01:30:22.704Z,21.62
2018-07-04T01:33:09.028Z,21.80
2018-07-04T01:35:55.497Z,21.69
2018-07-04T01:38:41.933Z,21.46
2018-07-04T01:41:28.238Z,21.44
2018-07-04T01:44:14.577Z,21.59
2018-07-04T01:47:00.991Z,21.45
2018-07-04T01:49:47.381Z,21.48
2018-07-04T01:52:33.633Z,21.27
2018-07-04T01:55:20.015Z,21.38
2018-07-04T01:58:06.513Z,21.48
2018-07-04T02:00:52.861Z,21.41
2018-07-04T02:03:39.146Z,21.43
2018-07-04T02:06:25.413Z,21.52
2018-07-04T02:09:11.904Z,21.51
2018-07-04T02:11:58.377Z,21.55
2018-07-04T02:14:44.711Z,21.49
2018-07-04T02:17:31.041Z,21.53
2018-07-04T02:20:17.461Z,21.48
2018-07-04T02:23:03.941Z,21.46
2018-07-04T02:25:50.194Z,21.33
2018-07-04T02:28:36.409Z,21.30
2018-07-04T02:31:22.778Z,21.06
2018-07-04T02:34:09.301Z,21.35
2018-07-04T02:36:55.565Z,21.40
2018-07-04T02:39:41.861Z,21.35
2018-07-04T02:42:28.261Z,21.33
2018-07-04T02:45:14.638Z,21.26
2018-07-04T02:48:00.990Z,21.39
2018-07-04T02:50:47.363Z,21.19
2018-07-04T02:53:33.849Z,21.20
2018-07-04T02:56:20.262Z,21.27
2018-07-04T02:59:06.645Z,21.07
2018-07-04T03:01:53.489Z,21.22
2018-07-04T03:04:39.892Z,21.09
2018-07-04T03:07:26.114Z,20.97
2018-07-04T03:10:12.341Z,21.15
2018-07-04T03:12:58.618Z,21.18
2018-07-04T03:15:45.061Z,21.05
2018-07-04T03:18:31.549Z,20.91
2018-07-04T03:21:18.040Z,21.07
2018-07-04T03:24:04.426Z,20.86
2018-07-04T03:26:50.695Z,20.93
2018-07-04T03:29:36.841Z,20.92
2018-07-04T03:32:23.233Z,20.99
2018-07-04T03:35:09.553Z,20.97
2018-07-04T03:37:55.889Z,20.79
2018-07-04T03:40:42.204Z,20.79
2018-07-04T03:43:28.673Z,20.65
2018-07-04T03:46:14.957Z,20.78
2018-07-04T03:49:01.415Z,20.55
2018-07-04T03:51:47.564Z,20.83
2018-07-04T03:54:33.885Z,20.69
2018-07-04T03:57:20.337Z,20.62
2018-07-04T04:00:06.719Z,20.80
2018-07-04T04:02:53.065Z,20.86
2018-07-04T04:05:39.245Z,20.95
2018-07-04T04:08:25.618Z,21.01
2018-07-04T04:11:11.968Z,21.04
2018-07-04T04:13:58.433Z,21.04
2018-07-04T04:16:44.873Z,20.95
2018-07-04T04:19:33.023Z,20.83
2018-07-04T04:22:19.325Z,21.07
2018-07-04T04:25:05.772Z,21.11
2018-07-04T04:27:52.229Z,20.92
2018-07-04T04:30:38.500Z,20.55
2018-07-04T04:33:24.817Z,20.91
2018-07-04T04:36:11.200Z,20.82
2018-07-04T04:38:57.553Z,20.84
2018-07-04T04:41:43.877Z,20.82
2018-07-04T04:44:30.326Z,20.74
2018-07-04T04:47:16.634Z,20.75
2018-07-04T04:50:03.854Z,20.86
2018-07-04T04:52:50.189Z,20.78
2018-07-04T04:55:36.590Z,20.94
2018-07-04T04:58:22.985Z,20.84
2018-07-04T05:01:09.516Z,21.09
2018-07-04T05:03:55.673Z,21.08
2018-07-04T05:06:41.897Z,21.19
2018-07-04T05:09:28.228Z,21.04
2018-07-04T05:12:14.529Z,20.75
2018-07-04T05:15:00.993Z,20.98
2018-07-04T05:17:47.283Z,21.05
2018-07-04T05:20:33.713Z,20.96
2018-07-04T05:23:20.056Z,21.04
2018-07-04T05:26:06.421Z,20.85
2018-07-04T05:28:52.925Z,21.15
2018-07-04T05:31:39.364Z,21.39
2018-07-04T05:34:25.689Z,21.25
2018-07-04T05:37:12.001Z,21.46
2018-07-04T05:39:58.244Z,21.48
2018-07-04T05:42:44.501Z,21.68
2018-07-04T05:45:30.813Z,21.55
2018-07-04T05:48:17.085Z,21.80
2018-07-04T05:51:03.361Z,21.57
2018-07-04T05:53:49.720Z,21.80
2018-07-04T05:56:36.045Z,21.75
2018-07-04T05:59:22.387Z,21.53
2018-07-04T06:02:08.757Z,21.35
2018-07-04T06:04:54.965Z,21.56
2018-07-04T06:07:41.473Z,21.68
2018-07-04T06:10:27.902Z,22.01
2018-07-04T06:13:14.302Z,21.88
2018-07-04T06:16:00.720Z,22.09
2018-07-04T06:18:46.910Z,22.34
2018-07-04T06:21:33.258Z,22.40
2018-07-04T06:24:19.561Z,22.34
2018-07-04T06:27:05.801Z,22.45
2018-07-04T06:29:52.192Z,22.46
2018-07-04T06:32:38.553Z,22.40
2018-07-04T06:35:24.890Z,22.65
2018-07-04T06:37:58.817Z,22.74
2018-07-04T06:40:26.532Z,22.84
2018-07-04T06:42:54.245Z,22.70
2018-07-04T06:45:21.965Z,22.74
2018-07-04T06:47:49.673Z,22.77
2018-07-04T06:50:17.393Z,22.85
2018-07-04T06:52:45.105Z,22.98
2018-07-04T06:55:12.852Z,23.12
2018-07-04T06:57:40.558Z,23.32
2018-07-04T07:00:08.262Z,23.52
2018-07-04T07:02:35.985Z,23.87
2018-07-04T07:05:16.015Z,24.16
2018-07-04T07:08:02.217Z,24.85
2018-07-04T07:10:48.441Z,24.76
2018-07-04T07:13:34.785Z,24.61
2018-07-04T07:16:21.280Z,25.18
2018-07-04T07:19:07.681Z,25.24
2018-07-04T07:21:54.445Z,25.35
2018-07-04T07:24:40.781Z,25.29
2018-07-04T07:27:27.109Z,26.18
2018-07-04T07:30:13.564Z,26.31
2018-07-04T07:32:59.980Z,26.29
2018-07-04T07:35:46.296Z,26.52
2018-07-04T07:38:32.540Z,27.19
2018-07-04T07:41:18.845Z,27.03
2018-07-04T07:44:05.266Z,26.64
2018-07-04T07:46:51.573Z,26.96
2018-07-04T07:49:37.981Z,26.81
2018-07-04T07:52:24.344Z,27.03
2018-07-04T07:55:10.717Z,27.16
2018-07-04T07:57:56.925Z,27.42
2018-07-04T08:00:43.260Z,27.96
2018-07-04T08:03:29.565Z,27.60
2018-07-04T08:06:15.768Z,27.60
2018-07-04T08:09:03.257Z,27.36
2018-07-04T08:11:49.669Z,27.09
2018-07-04T08:14:36.081Z,27.67
2018-07-04T08:17:23.018Z,27.58
2018-07-04T08:20:09.169Z,28.53
2018-07-04T08:22:55.536Z,28.65
2018-07-04T08:25:42.221Z,29.14
2018-07-04T08:28:28.637Z,28.65
2018-07-04T08:31:14.965Z,28.79
2018-07-04T08:34:01.361Z,28.72
2018-07-04T08:36:47.817Z,28.81
2018-07-04T08:39:34.285Z,28.76
2018-07-04T08:42:20.479Z,28.55
2018-07-04T08:45:06.901Z,28.39
2018-07-04T08:47:53.250Z,28.42
2018-07-04T08:50:39.671Z,28.44
2018-07-04T08:53:26.020Z,28.38
2018-07-04T08:56:12.460Z,28.40
2018-07-04T08:58:58.762Z,28.92
2018-07-04T09:01:45.056Z,28.62
2018-07-04T09:04:31.425Z,28.46
2018-07-04T09:07:18.001Z,28.41
2018-07-04T09:10:04.553Z,28.09
2018-07-04T09:12:50.900Z,28.04
2018-07-04T09:15:37.267Z,27.91
2018-07-04T09:18:23.892Z,27.58
2018-07-04T09:21:10.305Z,26.96
2018-07-04T09:23:56.556Z,26.26
2018-07-04T09:26:42.997Z,25.47
2018-07-04T09:29:29.561Z,25.16
2018-07-04T09:32:15.859Z,24.83
2018-07-04T09:35:02.241Z,24.56
2018-07-04T09:37:48.661Z,24.82
2018-07-04T09:40:34.892Z,25.34
2018-07-04T09:43:21.225Z,25.99
2018-07-04T09:46:07.631Z,26.27
2018-07-04T09:48:53.952Z,26.89
2018-07-04T09:51:40.365Z,27.07
2018-07-04T09:54:26.656Z,27.54
2018-07-04T09:57:13.108Z,27.82
2018-07-04T09:59:59.441Z,27.78
2018-07-04T10:02:45.694Z,28.08
2018-07-04T10:05:32.053Z,27.60
2018-07-04T10:08:18.276Z,27.43
2018-07-04T10:11:04.714Z,26.66
2018-07-04T10:13:50.865Z,26.60
2018-07-04T10:16:37.189Z,26.63
2018-07-04T10:19:23.654Z,26.74
2018-07-04T10:22:10.156Z,27.12
2018-07-04T10:24:56.194Z,26.88
2018-07-04T10:27:42.579Z,26.92
2018-07-04T10:30:29.050Z,27.34
2018-07-04T10:33:15.477Z,27.56
2018-07-04T10:36:01.861Z,27.33
2018-07-04T10:38:48.149Z,27.45
2018-07-04T10:41:34.521Z,27.40
2018-07-04T10:44:20.959Z,27.29
2018-07-04T10:47:07.312Z,27.26
2018-07-04T10:49:53.529Z,27.00
2018-07-04T10:52:39.901Z,27.06
2018-07-04T10:55:26.261Z,27.12
2018-07-04T10:58:12.693Z,27.43
2018-07-04T11:00:59.073Z,27.39
2018-07-04T11:03:45.282Z,27.31
2018-07-04T11:06:31.569Z,27.47
2018-07-04T11:09:17.896Z,27.49
2018-07-04T11:12:04.205Z,27.38
2018-07-04T11:14:51.613Z,27.59
2018-07-04T11:17:37.936Z,27.96
2018-07-04T11:20:24.289Z,28.16
2018-07-04T11:23:10.856Z,28.13
2018-07-04T11:25:57.280Z,27.94
2018-07-04T11:28:43.781Z,27.54
2018-07-04T11:31:30.025Z,27.51
2018-07-04T11:34:16.445Z,27.05
2018-07-04T11:37:02.920Z,27.13
2018-07-04T11:39:49.233Z,26.72
2018-07-04T11:42:35.497Z,26.42
2018-07-04T11:45:21.957Z,26.11
2018-07-04T11:47:56.057Z,25.92
2018-07-04T11:50:23.777Z,25.95
2018-07-04T11:52:51.503Z,25.88
2018-07-04T11:55:19.230Z,25.66
2018-07-04T11:57:46.949Z,25.68
2018-07-04T12:00:14.670Z,25.60
2018-07-04T12:02:42.530Z,25.70
2018-07-04T12:05:22.754Z,25.57
2018-07-04T12:07:56.565Z,25.59
2018-07-04T12:10:24.309Z,25.41
2018-07-04T12:12:52.022Z,25.42
2018-07-04T12:15:19.737Z,25.23
2018-07-04T12:17:47.445Z,25.31
2018-07-04T12:20:15.173Z,25.33
2018-07-04T12:22:42.885Z,25.32
2018-07-04T12:25:10.656Z,25.44
2018-07-04T12:27:38.353Z,25.38
2018-07-04T12:30:06.077Z,25.35
2018-07-04T12:32:33.785Z,25.36
2018-07-04T12:35:01.505Z,25.18
2018-07-04T12:37:29.284Z,25.29
2018-07-04T12:39:56.952Z,25.15
2018-07-04T12:42:24.671Z,25.14
2018-07-04T12:44:52.417Z,25.20
2018-07-04T12:47:20.203Z,25.12
2018-07-04T12:49:47.856Z,24.59
2018-07-04T12:52:15.581Z,24.64
2018-07-04T12:54:49.002Z,24.73
2018-07-04T12:57:35.245Z,24.39
2018-07-04T13:00:21.645Z,24.16
2018-07-04T13:03:07.888Z,24.16
2018-07-04T13:05:54.209Z,24.06
2018-07-04T13:08:40.528Z,23.50
2018-07-04T13:11:26.962Z,23.70
2018-07-04T13:14:13.372Z,23.55
2018-07-04T13:17:00.412Z,23.34
2018-07-04T13:19:46.760Z,23.41
2018-07-04T13:22:33.121Z,23.36
2018-07-04T13:25:19.468Z,23.35
2018-07-04T13:28:05.873Z,23.38
2018-07-04T13:30:52.108Z,23.18
2018-07-04T13:33:38.449Z,23.04
2018-07-04T13:36:25.144Z,22.80
2018-07-04T13:39:11.430Z,23.14
2018-07-04T13:41:57.769Z,23.19
2018-07-04T13:44:44.330Z,23.39
2018-07-04T13:47:30.772Z,23.42
2018-07-04T13:50:17.329Z,23.30
2018-07-04T13:53:03.774Z,23.22
2018-07-04T13:55:50.238Z,23.35
2018-07-04T13:58:36.629Z,23.24
2018-07-04T14:01:23.086Z,23.45
2018-07-04T14:04:09.411Z,23.08
2018-07-04T14:06:55.490Z,23.22
2018-07-04T14:09:41.849Z,23.26
2018-07-04T14:12:28.301Z,23.52
2018-07-04T14:15:14.656Z,23.68
2018-07-04T14:18:01.065Z,23.70
2018-07-04T14:20:51.277Z,23.98
2018-07-04T14:23:37.821Z,24.25
2018-07-04T14:26:24.249Z,24.81
2018-07-04T14:29:10.662Z,24.93
2018-07-04T14:31:57.063Z,24.82
2018-07-04T14:34:43.301Z,24.83
2018-07-04T14:37:29.639Z,24.63
2018-07-04T14:40:15.805Z,24.40
2018-07-04T14:43:02.259Z,24.48
2018-07-04T14:45:49.003Z,24.53
2018-07-04T14:48:35.552Z,24.52
2018-07-04T14:51:21.947Z,24.52
2018-07-04T14:54:08.386Z,24.48
2018-07-04T14:56:54.717Z,24.33
2018-07-04T14:59:41.028Z,24.32
2018-07-04T15:02:27.410Z,24.34
2018-07-04T15:05:13.738Z,24.12
2018-07-04T15:08:00.043Z,24.16
2018-07-04T15:10:47.417Z,24.10
2018-07-04T15:13:33.777Z,23.95
2018-07-04T15:16:20.276Z,23.81
2018-07-04T15:19:06.602Z,24.00
2018-07-04T15:21:52.946Z,24.05
2018-07-04T15:24:39.268Z,23.91
2018-07-04T15:27:25.830Z,23.78
2018-07-04T15:30:12.197Z,23.76
2018-07-04T15:32:58.625Z,23.75
2018-07-04T15:35:45.001Z,23.78
2018-07-04T15:38:31.329Z,23.73
2018-07-04T15:41:17.574Z,23.72
2018-07-04T15:44:03.877Z,23.51
2018-07-04T15:46:50.257Z,23.51
2018-07-04T15:49:36.576Z,23.50
2018-07-04T15:52:22.889Z,23.60
2018-07-04T15:55:09.178Z,23.46
2018-07-04T15:57:55.538Z,23.06
2018-07-04T16:00:42.026Z,23.32
2018-07-04T16:03:28.314Z,23.31
2018-07-04T16:06:14.597Z,23.34
2018-07-04T16:09:01.122Z,23.49
2018-07-04T16:11:48.473Z,23.60
2018-07-04T16:14:34.758Z,23.81
2018-07-04T16:17:21.346Z,23.73
2018-07-04T16:20:07.705Z,23.73
2018-07-04T16:22:54.079Z,23.78
2018-07-04T16:25:40.409Z,23.71
2018-07-04T16:28:26.997Z,23.82
2018-07-04T16:31:13.362Z,23.92
2018-07-04T16:33:59.949Z,23.73
2018-07-04T16:36:46.262Z,23.84
2018-07-04T16:39:32.580Z,23.77
2018-07-04T16:42:18.964Z,23.86
2018-07-04T16:45:05.429Z,23.66
2018-07-04T16:47:51.749Z,23.52
2018-07-04T16:50:38.261Z,23.54
2018-07-04T16:53:24.633Z,23.68
2018-07-04T16:56:10.998Z,23.41
2018-07-04T16:58:57.357Z,23.49
2018-07-04T17:01:43.398Z,23.76
2018-07-04T17:04:29.694Z,23.68
2018-07-04T17:07:16.113Z,23.65
2018-07-04T17:10:02.560Z,23.48
2018-07-04T17:12:48.776Z,23.85
2018-07-04T17:15:35.173Z,23.60
2018-07-04T17:18:21.632Z,23.67
2018-07-04T17:21:08.093Z,23.54
2018-07-04T17:23:54.319Z,23.56
2018-07-04T17:26:40.642Z,23.59
2018-07-04T17:29:26.881Z,23.64
2018-07-04T17:32:13.187Z,23.55
2018-07-04T17:34:59.537Z,23.58
2018-07-04T17:37:47.930Z,23.64
2018-07-04T17:40:34.216Z,23.75
2018-07-04T17:43:20.733Z,23.96
2018-07-04T17:46:07.033Z,24.07
2018-07-04T17:48:53.401Z,24.08
2018-07-04T17:51:40.081Z,24.21
2018-07-04T17:54:26.655Z,24.16
2018-07-04T17:57:13.211Z,24.04
2018-07-04T17:59:59.538Z,23.97
2018-07-04T18:02:45.952Z,24.03
2018-07-04T18:05:32.234Z,24.08
2018-07-04T18:08:20.628Z,24.06
2018-07-04T18:11:08.385Z,24.10
2018-07-04T18:13:57.909Z,24.11
2018-07-04T18:16:44.372Z,24.14
2018-07-04T18:19:30.597Z,23.96
2018-07-04T18:22:16.782Z,23.74
2018-07-04T18:25:03.023Z,23.58
2018-07-04T18:27:49.483Z,23.50
2018-07-04T18:30:35.829Z,23.61
2018-07-04T18:33:22.248Z,23.65
2018-07-04T18:36:08.539Z,23.72
2018-07-04T18:38:54.861Z,23.48
2018-07-04T18:41:42.121Z,23.21
2018-07-04T18:44:28.549Z,23.11
2018-07-04T18:47:14.857Z,23.27
2018-07-04T18:50:01.033Z,23.05
2018-07-04T18:52:47.481Z,22.94
2018-07-04T18:55:33.883Z,22.88
2018-07-04T18:58:20.161Z,23.05
2018-07-04T19:01:06.565Z,23.15
2018-07-04T19:03:52.918Z,22.97
2018-07-04T19:06:39.829Z,23.00
2018-07-04T19:09:26.188Z,22.88
2018-07-04T19:12:12.578Z,23.02
2018-07-04T19:14:58.877Z,22.74
2018-07-04T19:17:45.167Z,23.08
2018-07-04T19:20:31.689Z,23.11
2018-07-04T19:23:18.058Z,23.05
2018-07-04T19:26:04.362Z,22.75
2018-07-04T19:28:50.545Z,22.83
2018-07-04T19:31:36.857Z,23.06
2018-07-04T19:34:23.417Z,23.00
2018-07-04T19:37:11.778Z,23.00
2018-07-04T19:39:57.967Z,22.96
2018-07-04T19:42:44.218Z,22.85
2018-07-04T19:45:30.565Z,22.84
2018-07-04T19:48:17.043Z,22.74
2018-07-04T19:51:03.297Z,22.79
2018-07-04T19:53:49.709Z,22.87
2018-07-04T19:56:36.092Z,22.74
2018-07-04T19:59:22.457Z,22.69
2018-07-04T20:02:09.685Z,22.62
2018-07-04T20:04:56.440Z,22.54
2018-07-04T20:07:42.666Z,22.67
2018-07-04T20:10:29.066Z,22.66
2018-07-04T20:13:15.305Z,22.58
2018-07-04T20:16:02.209Z,22.66
2018-07-04T20:18:48.759Z,22.52
2018-07-04T20:21:35.185Z,22.27
2018-07-04T20:24:21.606Z,22.39
2018-07-04T20:27:08.001Z,22.23
2018-07-04T20:29:54.225Z,22.08
2018-07-04T20:32:40.602Z,21.87
2018-07-04T20:35:27.006Z,22.03
2018-07-04T20:38:13.413Z,21.80
2018-07-04T20:40:59.740Z,21.83
2018-07-04T20:43:46.167Z,21.71
2018-07-04T20:46:32.577Z,21.91
2018-07-04T20:49:19.040Z,21.52
2018-07-04T20:52:05.483Z,21.69
2018-07-04T20:54:51.892Z,21.52
2018-07-04T20:57:38.193Z,21.64
2018-07-04T21:00:24.609Z,21.42
2018-07-04T21:03:10.845Z,21.49
2018-07-04T21:05:58.371Z,21.48
2018-07-04T21:08:44.713Z,21.27
2018-07-04T21:14:10.647Z,21.07
2018-07-04T21:16:56.914Z,20.92
2018-07-04T21:19:43.229Z,20.96
2018-07-04T21:22:29.857Z,20.81
2018-07-04T21:25:16.361Z,21.12
2018-07-04T21:28:02.961Z,21.05
2018-07-04T21:30:49.356Z,21.08
2018-07-04T21:33:35.728Z,21.01
2018-07-04T21:36:22.030Z,21.02
2018-07-04T21:39:08.277Z,21.13
2018-07-04T21:41:54.782Z,21.15
2018-07-04T21:44:41.226Z,21.25
2018-07-04T21:47:27.657Z,21.17
2018-07-04T21:50:13.985Z,21.30
2018-07-04T21:53:00.298Z,21.07
2018-07-04T21:55:46.603Z,21.17
2018-07-04T21:58:32.979Z,21.30
2018-07-04T22:01:19.345Z,21.17
2018-07-04T22:04:05.718Z,21.33
2018-07-04T22:06:51.973Z,21.09
2018-07-04T22:09:38.274Z,21.10
2018-07-04T22:12:24.698Z,21.15
2018-07-04T22:15:11.025Z,20.96
2018-07-04T22:17:57.375Z,20.76
2018-07-04T22:20:43.753Z,20.94
2018-07-04T22:23:30.042Z,20.90
2018-07-04T22:26:16.489Z,20.82
2018-07-04T22:29:02.738Z,20.75
2018-07-04T22:31:49.188Z,20.82
2018-07-04T22:34:35.482Z,20.76
2018-07-04T22:37:21.917Z,20.74
2018-07-04T22:40:08.127Z,20.80
2018-07-04T22:42:54.494Z,20.85
2018-07-04T22:45:40.853Z,20.97
2018-07-04T22:51:27.572Z,20.56
2018-07-04T22:54:13.646Z,20.33
2018-07-04T22:57:03.345Z,20.52
2018-07-04T22:59:49.814Z,20.38
2018-07-04T23:02:41.160Z,20.48
2018-07-04T23:05:27.350Z,20.40
2018-07-04T23:08:13.785Z,20.30
2018-07-04T23:11:03.665Z,20.23
2018-07-04T23:13:49.976Z,20.33
2018-07-04T23:16:36.245Z,20.19
2018-07-04T23:19:22.693Z,20.26
2018-07-04T23:22:08.937Z,20.35
2018-07-04T23:24:55.281Z,19.96
2018-07-04T23:27:41.538Z,20.18
2018-07-04T23:30:28.080Z,20.31
2018-07-04T23:33:14.265Z,20.28
2018-07-04T23:36:00.613Z,20.25
2018-07-04T23:38:46.826Z,20.12
2018-07-04T23:41:32.990Z,20.20
2018-07-04T23:44:19.241Z,20.09
2018-07-04T23:47:05.549Z,20.17
2018-07-04T23:49:52.093Z,20.28
2018-07-04T23:52:38.489Z,20.10
2018-07-04T23:55:24.733Z,20.23
2018-07-04T23:58:11.012Z,20.11
